createdAt,value
2018-12-16T00:01:58.897Z,98.55
2018-12-16T00:04:26.280Z,99.01
2018-12-16T00:06:53.678Z,98.96
2018-12-16T00:09:21.064Z,98.88
2018-12-16T00:11:48.454Z,99.48
2018-12-16T00:14:15.850Z,99.15
2018-12-16T00:16:43.262Z,99.46
2018-12-16T00:19:11.641Z,99.57
2018-12-16T00:21:39.201Z,99.59
2018-12-16T00:24:06.611Z,99.77
2018-12-16T00:26:45.801Z,99.62
2018-12-16T00:29:13.194Z,100.00
2018-12-16T00:31:40.602Z,100.00
2018-12-16T00:34:08.010Z,100.00
2018-12-16T00:36:35.400Z,100.00
2018-12-16T00:39:02.994Z,100.00
2018-12-16T00:41:30.379Z,100.00
2018-12-16T00:43:57.773Z,100.00
2018-12-16T00:46:25.170Z,100.00
2018-12-16T00:48:52.557Z,100.00
2018-12-16T00:51:19.937Z,100.00
2018-12-16T00:53:47.356Z,100.00
2018-12-16T00:56:14.741Z,100.00
2018-12-16T00:58:42.122Z,100.00
2018-12-16T01:01:09.526Z,100.00
2018-12-16T01:03:36.913Z,99.88
2018-12-16T01:06:04.316Z,100.00
2018-12-16T01:08:31.697Z,100.00
2018-12-16T01:10:59.097Z,100.00
2018-12-16T01:13:26.477Z,100.00
2018-12-16T01:15:53.886Z,100.00
2018-12-16T01:18:21.278Z,100.00
2018-12-16T01:20:48.655Z,100.00
2018-12-16T01:23:16.045Z,100.00
2018-12-16T01:25:43.471Z,100.00
2018-12-16T01:28:10.860Z,100.00
2018-12-16T01:30:38.247Z,100.00
2018-12-16T01:33:05.638Z,100.00
2018-12-16T01:35:33.074Z,100.00
2018-12-16T01:38:00.476Z,100.00
2018-12-16T01:40:27.856Z,100.00
2018-12-16T01:42:55.259Z,100.00
2018-12-16T01:45:22.653Z,100.00
2018-12-16T01:47:50.063Z,100.00
2018-12-16T01:50:17.449Z,100.00
2018-12-16T01:52:50.153Z,100.00
2018-12-16T01:55:14.205Z,100.00
2018-12-16T01:57:41.614Z,100.00
2018-12-16T02:00:10.002Z,100.00
2018-12-16T02:02:37.393Z,100.00
2018-12-16T02:05:05.909Z,100.00
2018-12-16T02:07:33.315Z,100.00
2018-12-16T02:10:00.720Z,100.00
2018-12-16T02:12:28.101Z,100.00
2018-12-16T02:14:55.494Z,100.00
2018-12-16T02:17:22.974Z,99.87
2018-12-16T02:19:50.459Z,99.97
2018-12-16T02:22:17.845Z,100.00
2018-12-16T02:24:45.340Z,100.00
2018-12-16T02:27:12.822Z,99.28
2018-12-16T02:29:40.419Z,99.72
2018-12-16T02:32:07.810Z,99.11
2018-12-16T02:34:35.207Z,99.02
2018-12-16T02:37:02.600Z,99.52
2018-12-16T02:39:29.978Z,99.57
2018-12-16T02:41:57.370Z,99.87
2018-12-16T02:44:24.840Z,99.74
2018-12-16T02:46:52.223Z,99.77
2018-12-16T02:49:19.618Z,99.05
2018-12-16T02:51:47.007Z,99.63
2018-12-16T02:54:14.435Z,98.99
2018-12-16T02:56:41.836Z,99.65
2018-12-16T02:59:09.209Z,98.93
2018-12-16T03:01:36.688Z,99.39
2018-12-16T03:04:04.076Z,98.77
2018-12-16T03:06:31.473Z,99.00
2018-12-16T03:08:58.850Z,98.40
2018-12-16T03:11:26.257Z,98.64
2018-12-16T03:13:53.736Z,98.35
2018-12-16T03:16:21.128Z,98.29
2018-12-16T03:18:48.602Z,98.27
2018-12-16T03:21:16.094Z,98.68
2018-12-16T03:23:44.341Z,98.39
2018-12-16T03:26:11.801Z,98.92
2018-12-16T03:28:39.275Z,98.48
2018-12-16T03:31:06.671Z,99.09
2018-12-16T03:33:34.042Z,99.48
2018-12-16T03:36:01.437Z,99.95
2018-12-16T03:38:28.816Z,99.89
2018-12-16T03:40:56.201Z,100.00
2018-12-16T03:43:23.616Z,100.00
2018-12-16T03:45:50.999Z,99.71
2018-12-16T03:48:18.384Z,100.00
2018-12-16T03:50:45.773Z,100.00
2018-12-16T03:53:19.455Z,99.59
2018-12-16T03:55:42.528Z,99.74
2018-12-16T03:58:09.929Z,100.00
2018-12-16T04:00:37.330Z,100.00
2018-12-16T04:03:04.718Z,99.49
2018-12-16T04:05:32.134Z,99.84
2018-12-16T04:07:59.548Z,99.37
2018-12-16T04:10:26.941Z,100.00
2018-12-16T04:12:54.401Z,99.81
2018-12-16T04:15:21.806Z,100.00
2018-12-16T04:17:49.282Z,100.00
2018-12-16T04:20:16.687Z,100.00
2018-12-16T04:22:44.162Z,100.00
2018-12-16T04:25:11.656Z,100.00
2018-12-16T04:27:39.141Z,100.00
2018-12-16T04:30:06.535Z,99.87
2018-12-16T04:32:33.905Z,99.45
2018-12-16T04:35:01.300Z,99.31
2018-12-16T04:37:28.681Z,99.21
2018-12-16T04:39:56.086Z,98.67
2018-12-16T04:42:23.533Z,98.54
2018-12-16T04:44:50.938Z,98.28
2018-12-16T04:47:18.343Z,98.30
2018-12-16T04:49:45.723Z,98.18
2018-12-16T04:52:13.114Z,98.22
2018-12-16T04:54:40.504Z,98.64
2018-12-16T04:57:07.890Z,98.42
2018-12-16T04:59:35.282Z,98.04
2018-12-16T05:02:02.659Z,97.23
2018-12-16T05:04:30.052Z,97.16
2018-12-16T05:06:57.438Z,97.44
2018-12-16T05:09:24.842Z,97.53
2018-12-16T05:11:52.230Z,97.55
2018-12-16T05:14:19.625Z,97.15
2018-12-16T05:16:47.020Z,96.78
2018-12-16T05:19:14.515Z,96.96
2018-12-16T05:21:41.899Z,96.97
2018-12-16T05:24:09.307Z,96.82
2018-12-16T05:26:36.694Z,96.71
2018-12-16T05:29:04.102Z,96.72
2018-12-16T05:31:31.558Z,96.93
2018-12-16T05:33:58.968Z,96.76
2018-12-16T05:36:26.355Z,96.40
2018-12-16T05:38:53.745Z,96.59
2018-12-16T05:41:21.125Z,96.37
2018-12-16T05:43:48.506Z,96.30
2018-12-16T05:46:15.885Z,96.06
2018-12-16T05:48:43.286Z,96.43
2018-12-16T05:51:10.721Z,95.89
2018-12-16T05:53:38.712Z,96.74
2018-12-16T05:56:06.307Z,96.57
2018-12-16T05:58:33.731Z,96.44
2018-12-16T06:01:01.130Z,96.24
2018-12-16T06:03:28.519Z,96.59
2018-12-16T06:05:55.927Z,95.52
2018-12-16T06:08:23.342Z,96.06
2018-12-16T06:10:50.820Z,96.37
2018-12-16T06:13:18.213Z,96.43
2018-12-16T06:15:45.631Z,96.39
2018-12-16T06:18:13.025Z,96.30
2018-12-16T06:20:40.426Z,96.55
2018-12-16T06:23:07.805Z,95.92
2018-12-16T06:25:35.225Z,96.16
2018-12-16T06:28:02.686Z,96.00
2018-12-16T06:30:31.273Z,95.80
2018-12-16T06:32:58.667Z,95.60
2018-12-16T06:35:26.050Z,95.71
2018-12-16T06:37:53.455Z,96.10
2018-12-16T06:40:20.853Z,95.98
2018-12-16T06:42:48.261Z,96.52
2018-12-16T06:45:15.717Z,96.30
2018-12-16T06:47:43.125Z,95.90
2018-12-16T06:50:10.510Z,96.46
2018-12-16T06:52:37.928Z,96.47
2018-12-16T06:55:05.316Z,95.79
2018-12-16T06:57:32.690Z,96.26
2018-12-16T07:00:00.088Z,95.76
2018-12-16T07:02:27.569Z,95.68
2018-12-16T07:04:54.975Z,96.21
2018-12-16T07:07:22.433Z,95.71
2018-12-16T07:09:49.821Z,96.30
2018-12-16T07:12:17.213Z,95.40
2018-12-16T07:14:44.616Z,96.21
2018-12-16T07:17:12.079Z,95.75
2018-12-16T07:19:39.530Z,95.92
2018-12-16T07:22:07.014Z,96.05
2018-12-16T07:24:34.428Z,96.54
2018-12-16T07:27:01.919Z,96.20
2018-12-16T07:29:29.402Z,95.93
2018-12-16T07:31:56.844Z,96.04
2018-12-16T07:34:24.266Z,96.43
2018-12-16T07:36:51.809Z,96.35
2018-12-16T07:39:19.217Z,96.18
2018-12-16T07:41:46.644Z,95.28
2018-12-16T07:44:14.074Z,95.60
2018-12-16T07:46:41.474Z,95.31
2018-12-16T07:49:08.923Z,95.31
2018-12-16T07:51:36.353Z,94.87
2018-12-16T07:54:03.813Z,95.35
2018-12-16T07:56:31.210Z,94.81
2018-12-16T07:58:58.652Z,94.32
2018-12-16T08:01:26.050Z,94.39
2018-12-16T08:03:53.433Z,94.84
2018-12-16T08:06:20.841Z,94.30
2018-12-16T08:08:48.298Z,93.73
2018-12-16T08:11:15.677Z,93.43
2018-12-16T08:13:43.081Z,93.98
2018-12-16T08:16:10.470Z,93.14
2018-12-16T08:18:37.852Z,93.68
2018-12-16T08:21:05.309Z,93.08
2018-12-16T08:23:32.757Z,93.27
2018-12-16T08:26:00.223Z,93.61
2018-12-16T08:28:27.610Z,92.54
2018-12-16T08:30:55.098Z,92.96
2018-12-16T08:33:22.506Z,92.56
2018-12-16T08:35:49.899Z,92.00
2018-12-16T08:38:17.315Z,90.67
2018-12-16T08:40:44.702Z,90.09
2018-12-16T08:43:12.097Z,89.99
2018-12-16T08:45:39.485Z,89.75
2018-12-16T08:48:06.894Z,89.64
2018-12-16T08:50:34.274Z,88.93
2018-12-16T08:53:01.671Z,88.26
2018-12-16T08:55:29.056Z,87.89
2018-12-16T08:58:36.313Z,88.07
2018-12-16T09:01:03.704Z,86.94
2018-12-16T09:03:31.088Z,87.06
2018-12-16T09:07:14.798Z,87.03
2018-12-16T09:09:42.297Z,86.82
2018-12-16T09:12:09.703Z,86.63
2018-12-16T09:14:37.142Z,86.44
2018-12-16T09:17:04.550Z,85.67
2018-12-16T09:19:31.972Z,86.14
2018-12-16T09:21:59.373Z,85.46
2018-12-16T09:24:26.785Z,85.71
2018-12-16T09:26:54.169Z,85.12
2018-12-16T09:29:21.627Z,84.54
2018-12-16T09:31:49.098Z,85.52
2018-12-16T09:34:16.521Z,85.12
2018-12-16T09:36:43.924Z,85.06
2018-12-16T09:39:11.361Z,84.13
2018-12-16T09:41:38.771Z,83.80
2018-12-16T09:44:06.174Z,83.52
2018-12-16T09:46:33.583Z,83.89
2018-12-16T09:49:01.070Z,83.64
2018-12-16T09:51:28.548Z,83.54
2018-12-16T09:53:55.992Z,83.19
2018-12-16T09:56:23.379Z,82.82
2018-12-16T09:58:50.775Z,82.97
2018-12-16T10:01:18.176Z,83.16
2018-12-16T10:03:45.600Z,82.82
2018-12-16T10:06:13.022Z,83.31
2018-12-16T10:08:40.429Z,82.59
2018-12-16T10:11:07.836Z,82.54
2018-12-16T10:13:35.246Z,82.48
2018-12-16T10:16:02.685Z,81.56
2018-12-16T10:18:30.158Z,81.74
2018-12-16T10:20:57.573Z,82.88
2018-12-16T10:23:25.048Z,82.36
2018-12-16T10:25:52.442Z,82.51
2018-12-16T10:28:19.862Z,82.39
2018-12-16T10:30:47.253Z,82.20
2018-12-16T10:33:14.678Z,82.33
2018-12-16T10:35:42.133Z,82.62
2018-12-16T10:38:09.525Z,82.38
2018-12-16T10:40:40.633Z,82.61
2018-12-16T10:43:08.024Z,82.62
2018-12-16T10:45:35.426Z,82.24
2018-12-16T10:48:02.842Z,82.14
2018-12-16T10:50:30.243Z,82.14
2018-12-16T10:52:57.658Z,82.05
2018-12-16T10:55:25.130Z,82.06
2018-12-16T10:57:52.519Z,82.67
2018-12-16T11:00:25.415Z,83.17
2018-12-16T11:02:52.803Z,82.21
2018-12-16T11:05:20.236Z,82.35
2018-12-16T11:07:47.699Z,82.61
2018-12-16T11:10:15.089Z,82.80
2018-12-16T11:12:42.793Z,82.48
2018-12-16T11:15:10.194Z,82.87
2018-12-16T11:17:37.629Z,82.87
2018-12-16T11:20:05.910Z,82.45
2018-12-16T11:22:33.306Z,82.88
2018-12-16T11:25:05.714Z,82.67
2018-12-16T11:27:30.113Z,83.19
2018-12-16T11:29:57.592Z,82.88
2018-12-16T11:32:25.050Z,81.61
2018-12-16T11:34:52.442Z,83.33
2018-12-16T11:37:19.832Z,82.84
2018-12-16T11:39:47.234Z,82.77
2018-12-16T11:42:14.617Z,82.55
2018-12-16T11:44:42.018Z,82.50
2018-12-16T11:47:09.434Z,82.63
2018-12-16T11:49:36.837Z,82.43
2018-12-16T11:52:04.507Z,82.47
2018-12-16T11:54:31.983Z,83.04
2018-12-16T11:56:59.393Z,83.32
2018-12-16T11:59:26.968Z,84.00
2018-12-16T12:01:54.402Z,83.60
2018-12-16T12:04:21.802Z,83.67
2018-12-16T12:06:49.287Z,83.13
2018-12-16T12:09:16.692Z,83.04
2018-12-16T12:11:44.089Z,83.45
2018-12-16T12:14:11.549Z,83.23
2018-12-16T12:16:39.065Z,84.09
2018-12-16T12:19:06.466Z,83.27
2018-12-16T12:21:33.857Z,84.09
2018-12-16T12:24:01.237Z,83.63
2018-12-16T12:26:28.650Z,83.85
2018-12-16T12:28:56.037Z,83.74
2018-12-16T12:31:23.432Z,82.93
2018-12-16T12:33:50.840Z,82.91
2018-12-16T12:36:18.208Z,82.77
2018-12-16T12:38:45.630Z,83.59
2018-12-16T12:41:13.022Z,83.07
2018-12-16T12:43:40.422Z,83.03
2018-12-16T12:46:07.817Z,83.45
2018-12-16T12:48:35.216Z,83.43
2018-12-16T12:51:02.704Z,83.44
2018-12-16T12:53:30.113Z,83.30
2018-12-16T12:55:57.492Z,83.08
2018-12-16T12:58:24.878Z,83.55
2018-12-16T13:00:52.263Z,83.31
2018-12-16T13:03:19.646Z,83.00
2018-12-16T13:05:47.042Z,83.21
2018-12-16T13:08:14.514Z,82.92
2018-12-16T13:10:41.897Z,82.51
2018-12-16T13:13:09.294Z,83.16
2018-12-16T13:15:36.716Z,83.66
2018-12-16T13:18:04.101Z,84.42
2018-12-16T13:20:31.511Z,84.10
2018-12-16T13:22:58.918Z,84.37
2018-12-16T13:25:38.116Z,84.73
2018-12-16T13:28:05.504Z,84.52
2018-12-16T13:30:32.934Z,84.02
2018-12-16T13:33:00.437Z,83.84
2018-12-16T13:35:27.826Z,83.61
2018-12-16T13:37:55.207Z,83.81
2018-12-16T13:40:22.599Z,83.82
2018-12-16T13:42:50.904Z,84.61
2018-12-16T13:45:18.281Z,83.84
2018-12-16T13:47:45.674Z,84.35
2018-12-16T13:50:13.265Z,84.65
2018-12-16T13:52:40.649Z,84.30
2018-12-16T13:55:08.058Z,84.06
2018-12-16T13:57:36.452Z,84.62
2018-12-16T14:00:05.439Z,84.07
2018-12-16T14:02:32.831Z,84.18
2018-12-16T14:05:00.301Z,83.68
2018-12-16T14:07:27.699Z,83.60
2018-12-16T14:09:55.088Z,83.94
2018-12-16T14:12:22.461Z,83.82
2018-12-16T14:14:49.862Z,84.52
2018-12-16T14:17:17.245Z,84.67
2018-12-16T14:19:44.636Z,84.50
2018-12-16T14:22:12.030Z,84.61
2018-12-16T14:24:39.433Z,84.37
2018-12-16T14:27:06.869Z,84.39
2018-12-16T14:29:34.246Z,84.68
2018-12-16T14:32:01.651Z,84.94
2018-12-16T14:34:29.036Z,84.99
2018-12-16T14:36:56.416Z,85.42
2018-12-16T14:39:23.808Z,84.97
2018-12-16T14:41:51.203Z,85.33
2018-12-16T14:44:18.590Z,84.81
2018-12-16T14:46:45.982Z,84.30
2018-12-16T14:49:13.369Z,84.47
2018-12-16T14:51:40.737Z,84.91
2018-12-16T14:54:08.121Z,84.73
2018-12-16T14:56:35.532Z,84.99
2018-12-16T14:59:02.918Z,85.53
2018-12-16T15:01:30.427Z,85.53
2018-12-16T15:03:57.829Z,85.25
2018-12-16T15:06:25.236Z,85.24
2018-12-16T15:08:52.737Z,84.46
2018-12-16T15:11:20.114Z,85.43
2018-12-16T15:13:47.514Z,85.53
2018-12-16T15:16:14.894Z,85.41
2018-12-16T15:18:42.372Z,85.43
2018-12-16T15:21:09.818Z,85.63
2018-12-16T15:23:38.371Z,86.12
2018-12-16T15:26:05.764Z,86.73
2018-12-16T15:28:33.197Z,86.37
2018-12-16T15:31:00.573Z,86.52
2018-12-16T15:33:27.984Z,86.46
2018-12-16T15:35:55.378Z,86.94
2018-12-16T15:38:22.833Z,88.17
2018-12-16T15:40:50.202Z,89.54
2018-12-16T15:43:17.624Z,90.12
2018-12-16T15:45:45.015Z,90.65
2018-12-16T15:48:12.426Z,90.78
2018-12-16T15:50:41.205Z,90.74
2018-12-16T15:53:08.620Z,90.62
2018-12-16T15:55:36.102Z,91.45
2018-12-16T15:58:03.581Z,91.43
2018-12-16T16:00:30.955Z,91.44
2018-12-16T16:02:58.342Z,91.09
2018-12-16T16:05:25.770Z,91.77
2018-12-16T16:07:53.180Z,91.68
2018-12-16T16:10:20.581Z,92.25
2018-12-16T16:12:48.991Z,91.63
2018-12-16T16:15:16.414Z,91.97
2018-12-16T16:17:43.800Z,91.21
2018-12-16T16:20:11.340Z,91.78
2018-12-16T16:22:38.741Z,91.38
2018-12-16T16:25:06.245Z,90.69
2018-12-16T16:27:33.631Z,90.74
2018-12-16T16:30:01.032Z,90.60
2018-12-16T16:32:28.433Z,90.21
2018-12-16T16:34:55.927Z,90.49
2018-12-16T16:37:23.376Z,90.10
2018-12-16T16:39:50.785Z,90.16
2018-12-16T16:42:18.182Z,90.24
2018-12-16T16:44:45.595Z,89.44
2018-12-16T16:47:12.998Z,89.37
2018-12-16T16:49:40.673Z,88.93
2018-12-16T16:52:08.178Z,88.73
2018-12-16T16:54:35.595Z,89.36
2018-12-16T16:57:03.025Z,88.59
2018-12-16T16:59:30.424Z,88.94
2018-12-16T17:01:57.943Z,88.42
2018-12-16T17:04:25.363Z,89.04
2018-12-16T17:06:52.742Z,90.59
2018-12-16T17:09:20.219Z,91.04
2018-12-16T17:11:47.627Z,90.22
2018-12-16T17:14:15.117Z,90.47
2018-12-16T17:16:42.516Z,91.46
2018-12-16T17:19:10.332Z,92.08
2018-12-16T17:21:38.250Z,91.28
2018-12-16T17:24:05.659Z,92.85
2018-12-16T17:26:33.045Z,92.19
2018-12-16T17:29:00.426Z,92.17
2018-12-16T17:31:27.844Z,91.56
2018-12-16T17:33:55.243Z,92.98
2018-12-16T17:36:22.630Z,93.14
2018-12-16T17:38:50.163Z,93.37
2018-12-16T17:41:17.570Z,92.80
2018-12-16T17:43:45.287Z,93.28
2018-12-16T17:46:12.646Z,93.53
2018-12-16T17:48:40.063Z,93.48
2018-12-16T17:51:07.507Z,93.71
2018-12-16T17:53:34.986Z,94.20
2018-12-16T17:56:02.484Z,94.21
2018-12-16T17:58:30.076Z,95.02
2018-12-16T18:00:57.556Z,94.55
2018-12-16T18:03:24.963Z,94.86
2018-12-16T18:05:52.362Z,95.20
2018-12-16T18:08:19.750Z,93.90
2018-12-16T18:10:47.230Z,94.84
2018-12-16T18:13:14.622Z,94.52
2018-12-16T18:15:42.082Z,94.19
2018-12-16T18:18:09.458Z,94.13
2018-12-16T18:20:36.849Z,94.57
2018-12-16T18:23:04.259Z,94.59
2018-12-16T18:25:31.649Z,94.85
2018-12-16T18:27:59.042Z,93.97
2018-12-16T18:30:26.562Z,95.17
2018-12-16T18:32:54.079Z,95.25
2018-12-16T18:35:21.526Z,95.88
2018-12-16T18:38:33.098Z,96.11
2018-12-16T18:41:00.491Z,96.17
2018-12-16T18:43:28.122Z,95.88
2018-12-16T18:45:56.045Z,95.70
2018-12-16T18:50:37.482Z,96.10
2018-12-16T18:53:05.196Z,97.12
2018-12-16T18:55:32.689Z,97.65
2018-12-16T18:58:00.094Z,97.85
2018-12-16T19:00:27.575Z,99.07
2018-12-16T19:02:55.024Z,98.86
2018-12-16T19:05:22.668Z,99.90
2018-12-16T19:07:50.059Z,99.88
2018-12-16T19:10:17.481Z,100.00
2018-12-16T19:12:44.874Z,100.00
2018-12-16T19:15:12.787Z,100.00
2018-12-16T19:17:40.271Z,100.00
2018-12-16T19:20:07.690Z,100.00
2018-12-16T19:22:35.078Z,100.00
2018-12-16T19:25:02.497Z,100.00
2018-12-16T19:27:29.879Z,100.00
2018-12-16T19:29:57.365Z,100.00
2018-12-16T19:32:24.772Z,100.00
2018-12-16T19:34:52.167Z,100.00
2018-12-16T19:37:19.566Z,100.00
2018-12-16T19:39:46.962Z,100.00
2018-12-16T19:42:17.511Z,100.00
2018-12-16T19:44:44.951Z,100.00
2018-12-16T19:47:12.357Z,100.00
2018-12-16T19:49:39.752Z,100.00
2018-12-16T19:52:07.157Z,100.00
2018-12-16T19:54:35.055Z,100.00
2018-12-16T19:57:05.221Z,100.00
2018-12-16T19:59:31.927Z,100.00
2018-12-16T20:02:00.235Z,100.00
2018-12-16T20:04:29.558Z,100.00
2018-12-16T20:06:56.974Z,100.00
2018-12-16T20:09:24.421Z,100.00
2018-12-16T20:11:51.933Z,100.00
2018-12-16T20:14:19.332Z,100.00
2018-12-16T20:16:46.731Z,100.00
2018-12-16T20:19:15.768Z,100.00
2018-12-16T20:21:43.193Z,100.00
2018-12-16T20:31:32.794Z,100.00
2018-12-16T20:34:00.280Z,100.00
2018-12-16T20:36:29.168Z,100.00
2018-12-16T20:38:56.790Z,100.00
2018-12-16T20:41:24.188Z,100.00
2018-12-16T20:43:51.600Z,100.00
2018-12-16T20:46:19.102Z,100.00
2018-12-16T20:48:46.522Z,100.00
2018-12-16T20:51:13.935Z,100.00
2018-12-16T20:53:41.635Z,100.00
2018-12-16T20:56:09.066Z,100.00
2018-12-16T20:58:36.462Z,100.00
2018-12-16T21:01:03.879Z,100.00
2018-12-16T21:03:31.274Z,100.00
2018-12-16T21:05:59.481Z,100.00
2018-12-16T21:08:26.995Z,100.00
2018-12-16T21:10:54.460Z,100.00
2018-12-16T21:13:27.338Z,100.00
2018-12-16T21:16:00.275Z,100.00
2018-12-16T21:18:28.275Z,100.00
2018-12-16T21:20:55.687Z,100.00
2018-12-16T21:23:23.116Z,100.00
2018-12-16T21:25:50.557Z,100.00
2018-12-16T21:28:17.978Z,100.00
2018-12-16T21:30:45.391Z,100.00
2018-12-16T21:33:12.805Z,100.00
2018-12-16T21:35:40.205Z,100.00
2018-12-16T21:38:07.599Z,100.00
2018-12-16T21:40:35.050Z,100.00
2018-12-16T21:43:02.440Z,100.00
2018-12-16T21:45:29.840Z,100.00
2018-12-16T21:47:57.238Z,100.00
2018-12-16T21:50:24.647Z,100.00
2018-12-16T21:52:52.056Z,100.00
2018-12-16T21:55:19.463Z,100.00
2018-12-16T21:57:46.984Z,100.00
2018-12-16T22:00:14.393Z,100.00
2018-12-16T22:02:41.807Z,100.00
2018-12-16T22:05:09.937Z,100.00
2018-12-16T22:07:37.365Z,100.00
2018-12-16T22:10:05.480Z,100.00
2018-12-16T22:12:32.886Z,100.00
2018-12-16T22:15:00.292Z,100.00
2018-12-16T22:17:27.723Z,100.00
2018-12-16T22:19:55.175Z,100.00
2018-12-16T22:22:22.565Z,100.00
2018-12-16T22:24:49.966Z,100.00
2018-12-16T22:27:17.366Z,100.00
2018-12-16T22:29:44.857Z,100.00
2018-12-16T22:32:12.253Z,100.00
2018-12-16T22:34:39.654Z,100.00
2018-12-16T22:37:07.058Z,100.00
2018-12-16T22:39:41.277Z,100.00
2018-12-16T22:42:08.678Z,100.00
2018-12-16T22:44:36.082Z,100.00
2018-12-16T22:47:03.484Z,100.00
2018-12-16T22:49:31.002Z,100.00
2018-12-16T22:51:58.487Z,100.00
2018-12-16T22:54:25.902Z,100.00
2018-12-16T22:56:53.308Z,100.00
2018-12-16T22:59:20.705Z,100.00
2018-12-16T23:01:48.102Z,100.00
2018-12-16T23:04:15.532Z,100.00
2018-12-16T23:06:42.909Z,100.00
2018-12-16T23:09:10.326Z,100.00
2018-12-16T23:11:37.730Z,100.00
2018-12-16T23:14:05.153Z,100.00
2018-12-16T23:16:32.555Z,100.00
2018-12-16T23:18:59.962Z,100.00
2018-12-16T23:21:27.360Z,100.00
2018-12-16T23:23:54.798Z,100.00
2018-12-16T23:26:22.188Z,100.00
2018-12-16T23:28:49.702Z,100.00
2018-12-16T23:31:17.112Z,100.00
2018-12-16T23:33:44.527Z,100.00
2018-12-16T23:36:11.986Z,100.00
2018-12-16T23:38:39.391Z,100.00
2018-12-16T23:41:07.140Z,100.00
2018-12-16T23:43:34.551Z,100.00
2018-12-16T23:46:01.963Z,100.00
2018-12-16T23:48:29.373Z,100.00
2018-12-16T23:50:56.781Z,100.00
2018-12-16T23:53:24.200Z,100.00
2018-12-16T23:55:51.621Z,100.00
2018-12-16T23:58:19.014Z,100.00
